createdAt,value
2022-09-05T00:01:27.570Z,99011.19
2022-09-05T00:03:55.018Z,99013.00
2022-09-05T00:06:22.312Z,99017.25
2022-09-05T00:08:51.071Z,99025.31
2022-09-05T00:11:41.393Z,99022.66
2022-09-05T00:14:06.281Z,99021.84
2022-09-05T00:16:33.335Z,99021.03
2022-09-05T00:22:48.350Z,99017.41
2022-09-05T00:24:26.412Z,99021.84
2022-09-05T00:24:51.382Z,99022.81
2022-09-05T00:27:21.843Z,99018.53
2022-09-05T00:31:06.607Z,99022.13
2022-09-05T00:32:36.512Z,99021.16
2022-09-05T00:35:03.678Z,99024.75
2022-09-05T00:37:32.190Z,99024.75
2022-09-05T00:40:17.243Z,99029.19
2022-09-05T00:42:45.839Z,99029.19
2022-09-05T00:45:14.516Z,99027.53
2022-09-05T00:47:48.333Z,99029.19
2022-09-05T00:50:15.541Z,99037.06
2022-09-05T00:52:42.653Z,99036.25
2022-09-05T00:55:18.768Z,99027.66
2022-09-05T00:57:45.799Z,99040.66
2022-09-05T01:00:17.353Z,99038.16
2022-09-05T01:02:51.640Z,99040.78
2022-09-05T01:05:19.242Z,99040.78
2022-09-05T01:07:46.548Z,99039.97
2022-09-05T01:10:15.014Z,99046.03
2022-09-05T01:12:42.265Z,99036.53
2022-09-05T01:15:17.191Z,99040.94
2022-09-05T01:17:44.227Z,99039.28
2022-09-05T01:20:19.290Z,99041.91
2022-09-05T01:22:46.887Z,99032.38
2022-09-05T01:25:13.982Z,99046.31
2022-09-05T01:29:14.464Z,99034.16
2022-09-05T01:30:31.854Z,99045.50
2022-09-05T01:33:06.101Z,99044.69
2022-09-05T01:35:33.404Z,99047.31
2022-09-05T01:38:00.498Z,99042.88
2022-09-05T01:40:27.612Z,99043.03
2022-09-05T01:42:54.707Z,99040.41
2022-09-05T01:45:21.795Z,99040.53
2022-09-05T01:47:51.606Z,99039.56
2022-09-05T01:50:20.163Z,99044.81
2022-09-05T01:52:57.511Z,99050.09
2022-09-05T01:55:32.252Z,99048.41
2022-09-05T01:58:03.539Z,99039.56
2022-09-05T02:00:30.652Z,99038.06
2022-09-05T02:02:57.738Z,99036.41
2022-09-05T02:05:47.705Z,99028.53
2022-09-05T02:08:11.858Z,99040.84
2022-09-05T02:10:38.918Z,99038.19
2022-09-05T02:13:05.965Z,99034.72
2022-09-05T02:15:33.101Z,99032.94
2022-09-05T02:18:00.207Z,99027.00
2022-09-05T02:20:27.243Z,99040.94
2022-09-05T02:22:54.348Z,99040.13
2022-09-05T02:26:01.107Z,99041.09
2022-09-05T02:28:08.425Z,99044.56
2022-09-05T02:30:35.748Z,99041.09
2022-09-05T02:33:02.875Z,99042.91
2022-09-05T02:35:29.911Z,99035.03
2022-09-05T02:41:32.056Z,99035.84
2022-09-05T02:45:09.420Z,99043.72
2022-09-05T02:45:11.607Z,99035.84
2022-09-05T02:46:18.335Z,99035.03
2022-09-05T02:48:45.458Z,99035.16
2022-09-05T02:57:23.423Z,99034.31
2022-09-05T02:57:35.753Z,99040.41
2022-09-05T02:57:42.661Z,99038.75
2022-09-05T02:59:36.207Z,99033.66
2022-09-05T03:02:25.529Z,99031.03
2022-09-05T03:04:51.034Z,99026.59
2022-09-05T03:07:18.103Z,99029.34
2022-09-05T03:09:45.186Z,99028.41
2022-09-05T03:12:17.855Z,99035.44
2022-09-05T03:14:56.681Z,99031.16
2022-09-05T03:17:23.957Z,99028.53
2022-09-05T03:19:50.985Z,99025.06
2022-09-05T03:22:18.085Z,99027.00
2022-09-05T03:24:56.034Z,99027.84
2022-09-05T03:27:29.078Z,99032.25
2022-09-05T03:29:56.495Z,99029.63
2022-09-05T03:32:25.982Z,99031.44
2022-09-05T03:34:53.646Z,99029.63
2022-09-05T03:37:20.713Z,99025.22
2022-09-05T03:39:47.783Z,99022.72
2022-09-05T03:42:15.234Z,99020.09
2022-09-05T03:44:42.715Z,99020.94
2022-09-05T03:47:09.844Z,99020.25
2022-09-05T03:51:11.927Z,99023.69
2022-09-05T03:57:07.376Z,99033.22
2022-09-05T03:57:16.679Z,99028.97
2022-09-05T03:58:01.313Z,99019.44
2022-09-05T04:00:43.411Z,99025.63
2022-09-05T04:08:08.423Z,99024.81
2022-09-05T04:08:20.473Z,99023.97
2022-09-05T04:08:45.739Z,99014.31
2022-09-05T04:11:13.295Z,99013.47
2022-09-05T04:13:40.383Z,99009.19
2022-09-05T04:16:07.511Z,99013.47
2022-09-05T04:18:34.830Z,99008.38
2022-09-05T04:21:02.028Z,99009.31
2022-09-05T04:23:29.113Z,99012.81
2022-09-05T04:26:02.945Z,99007.56
2022-09-05T04:28:38.215Z,99004.94
2022-09-05T04:31:08.455Z,99005.88
2022-09-05T04:33:36.948Z,99005.03
2022-09-05T04:36:10.885Z,99001.59
2022-09-05T04:38:45.390Z,99009.31
2022-09-05T04:41:12.451Z,99017.34
2022-09-05T04:43:39.494Z,99027.03
2022-09-05T04:46:06.619Z,99029.66
2022-09-05T04:48:34.117Z,99032.28
2022-09-05T04:51:04.287Z,99040.97
2022-09-05T04:53:33.085Z,99047.22
2022-09-05T04:56:00.202Z,99049.84
2022-09-05T04:58:36.414Z,99052.47
2022-09-05T05:06:09.238Z,99056.88
2022-09-05T05:06:14.283Z,99057.72
2022-09-05T05:06:49.738Z,99059.50
2022-09-05T05:09:17.519Z,99054.25
2022-09-05T05:17:03.751Z,99057.00
2022-09-05T05:18:03.010Z,99060.47
2022-09-05T05:18:14.686Z,99062.38
2022-09-05T05:20:40.057Z,99065.84
2022-09-05T05:22:53.021Z,99065.84
2022-09-05T05:25:20.070Z,99065.00
2022-09-05T05:27:47.103Z,99073.84
2022-09-05T05:30:14.208Z,99068.59
2022-09-05T05:32:46.467Z,99072.06
2022-09-05T05:35:13.821Z,99081.59
2022-09-05T05:37:40.882Z,99083.66
2022-09-05T05:40:11.205Z,99080.88
2022-09-05T05:42:38.299Z,99080.88
2022-09-05T05:45:05.408Z,99091.38
2022-09-05T05:47:32.769Z,99087.94
2022-09-05T05:49:59.872Z,99089.72
2022-09-05T05:52:27.542Z,99095.81
2022-09-05T05:55:08.105Z,99096.63
2022-09-05T05:57:41.696Z,99092.34
2022-09-05T06:00:09.266Z,99091.53
2022-09-05T06:02:42.194Z,99102.03
2022-09-05T06:05:09.575Z,99102.19
2022-09-05T06:07:55.890Z,99094.31
2022-09-05T06:14:49.251Z,99089.06
2022-09-05T06:14:56.907Z,99088.19
2022-09-05T06:16:06.447Z,99089.06
2022-09-05T06:18:33.824Z,99089.88
2022-09-05T06:22:11.120Z,99089.06
2022-09-05T06:23:47.923Z,99088.19
2022-09-05T06:26:15.211Z,99086.44
2022-09-05T06:28:42.289Z,99102.19
2022-09-05T06:31:30.109Z,99102.19
2022-09-05T06:33:56.975Z,99102.31
2022-09-05T06:36:24.519Z,99103.13
2022-09-05T06:38:51.594Z,99101.47
2022-09-05T06:41:19.990Z,99105.91
2022-09-05T06:43:47.041Z,99106.72
2022-09-05T06:46:15.704Z,99105.75
2022-09-05T06:49:31.344Z,99111.00
2022-09-05T06:51:48.488Z,99108.38
2022-09-05T06:54:28.125Z,99111.81
2022-09-05T06:56:59.745Z,99106.56
2022-09-05T06:59:26.791Z,99112.69
2022-09-05T07:02:00.237Z,99120.56
2022-09-05T07:05:24.120Z,99125.66
2022-09-05T07:07:16.957Z,99123.84
2022-09-05T07:09:44.343Z,99130.91
2022-09-05T07:12:12.126Z,99117.78
2022-09-05T07:14:39.292Z,99122.06
2022-09-05T07:17:06.369Z,99124.56
2022-09-05T07:19:33.471Z,99125.50
2022-09-05T07:22:00.578Z,99128.84
2022-09-05T07:24:45.584Z,99124.44
2022-09-05T07:27:17.707Z,99126.91
2022-09-05T07:30:00.910Z,99136.34
2022-09-05T07:32:28.417Z,99133.59
2022-09-05T07:34:56.133Z,99130.81
2022-09-05T07:37:23.244Z,99128.88
2022-09-05T07:39:50.309Z,99123.50
2022-09-05T07:42:17.403Z,99127.75
2022-09-05T07:44:44.526Z,99125.84
2022-09-05T07:47:11.799Z,99122.25
2022-09-05T07:49:39.908Z,99127.50
2022-09-05T07:56:53.850Z,99123.06
2022-09-05T07:57:06.157Z,99115.91
2022-09-05T07:58:03.536Z,99118.38
2022-09-05T08:00:30.647Z,99117.41
2022-09-05T08:02:57.733Z,99113.00
2022-09-05T08:05:34.514Z,99114.66
2022-09-05T08:08:02.817Z,99113.53
2022-09-05T08:10:31.199Z,99117.56
2022-09-05T08:13:23.374Z,99111.59
2022-09-05T08:16:09.905Z,99114.22
2022-09-05T08:18:37.205Z,99111.75
2022-09-05T08:21:04.472Z,99112.31
2022-09-05T08:23:31.567Z,99113.25
2022-09-05T08:25:58.681Z,99117.56
2022-09-05T08:28:26.014Z,99111.31
2022-09-05T08:31:06.994Z,99112.97
2022-09-05T08:33:34.130Z,99109.38
2022-09-05T08:36:01.636Z,99112.81
2022-09-05T08:38:35.922Z,99105.78
2022-09-05T08:41:08.142Z,99112.69
2022-09-05T08:46:35.435Z,99104.81
2022-09-05T08:46:48.668Z,99108.13
2022-09-05T08:49:12.262Z,99100.38
2022-09-05T08:51:54.399Z,99103.72
2022-09-05T08:54:22.860Z,99094.03
2022-09-05T08:56:49.976Z,99101.75
2022-09-05T08:59:27.949Z,99101.75
2022-09-05T09:02:14.597Z,99099.00
2022-09-05T09:05:01.830Z,99094.72
2022-09-05T09:07:50.881Z,99099.00
2022-09-05T09:10:25.722Z,99098.03
2022-09-05T09:12:53.395Z,99100.50
2022-09-05T09:15:20.758Z,99096.22
2022-09-05T09:17:49.450Z,99090.81
2022-09-05T09:20:16.874Z,99082.81
2022-09-05T09:22:43.997Z,99078.25
2022-09-05T09:25:14.966Z,99078.25
2022-09-05T09:28:19.003Z,99081.84
2022-09-05T09:30:29.777Z,99077.41
2022-09-05T09:32:59.412Z,99076.59
2022-09-05T09:35:26.666Z,99079.06
2022-09-05T09:37:58.686Z,99079.91
2022-09-05T09:40:26.795Z,99075.47
2022-09-05T09:42:57.456Z,99075.47
2022-09-05T09:45:28.327Z,99067.59
2022-09-05T09:47:56.403Z,99071.88
2022-09-05T09:50:23.493Z,99067.44
2022-09-05T09:52:50.594Z,99062.19
2022-09-05T09:55:21.535Z,99063.03
2022-09-05T09:57:48.678Z,99059.56
2022-09-05T10:00:17.593Z,99060.38
2022-09-05T10:09:28.755Z,99062.06
2022-09-05T10:10:40.168Z,99050.44
2022-09-05T10:10:52.851Z,99050.59
2022-09-05T10:11:50.047Z,99049.31
2022-09-05T10:13:57.132Z,99044.34
2022-09-05T10:16:24.309Z,99040.91
2022-09-05T10:18:54.519Z,99034.66
2022-09-05T10:21:25.502Z,99036.47
2022-09-05T10:23:52.567Z,99034.66
2022-09-05T10:26:19.623Z,99035.47
2022-09-05T10:28:46.664Z,99026.66
2022-09-05T10:32:25.930Z,99038.94
2022-09-05T10:35:12.864Z,99022.34
2022-09-05T10:36:47.862Z,99022.22
2022-09-05T10:39:21.015Z,99020.53
2022-09-05T10:41:51.078Z,99019.59
2022-09-05T10:44:18.161Z,99011.72
2022-09-05T10:46:53.067Z,99011.72
2022-09-05T10:49:20.169Z,99013.34
2022-09-05T10:51:51.805Z,99009.91
2022-09-05T10:54:19.285Z,99007.28
2022-09-05T10:56:46.386Z,98999.41
2022-09-05T11:02:15.893Z,98999.41
2022-09-05T11:02:26.778Z,99006.28
2022-09-05T11:04:50.008Z,98994.97
2022-09-05T11:07:17.439Z,98994.97
2022-09-05T11:09:56.461Z,98993.16
2022-09-05T11:14:50.490Z,98982.66
2022-09-05T11:17:17.567Z,98983.47
2022-09-05T11:19:44.742Z,98986.78
2022-09-05T11:22:23.557Z,98977.94
2022-09-05T11:24:51.340Z,98978.63
2022-09-05T11:27:25.053Z,98974.19
2022-09-05T11:29:52.978Z,98972.56
2022-09-05T11:33:44.448Z,98971.69
2022-09-05T11:39:56.953Z,98981.25
2022-09-05T11:39:59.920Z,98976.81
2022-09-05T11:40:58.053Z,98973.38
2022-09-05T11:43:28.273Z,98978.63
2022-09-05T11:45:55.489Z,98962.88
2022-09-05T11:48:25.562Z,98963.69
2022-09-05T11:50:52.630Z,98961.88
2022-09-05T11:53:19.726Z,98958.44
2022-09-05T11:55:47.141Z,98959.25
2022-09-05T11:58:43.912Z,98966.16
2022-09-05T12:01:41.258Z,98968.78
2022-09-05T12:03:59.067Z,98960.91
2022-09-05T12:06:27.530Z,98962.53
2022-09-05T12:08:55.251Z,98963.41
2022-09-05T12:11:22.679Z,98966.97
2022-09-05T12:13:51.211Z,98965.03
2022-09-05T12:16:19.203Z,98957.16
2022-09-05T12:18:46.376Z,98963.09
2022-09-05T12:21:14.372Z,98956.88
2022-09-05T12:24:11.548Z,98953.25
2022-09-05T12:27:40.097Z,98951.31
2022-09-05T12:29:34.243Z,98953.09
2022-09-05T12:33:33.991Z,98956.56
2022-09-05T12:36:08.777Z,98958.81
2022-09-05T12:41:39.185Z,98946.56
2022-09-05T12:41:42.340Z,98949.22
2022-09-05T12:44:36.414Z,98939.53
2022-09-05T12:46:01.865Z,98933.44
2022-09-05T12:48:38.441Z,98934.16
2022-09-05T12:51:06.707Z,98939.78
2022-09-05T12:53:35.312Z,98937.16
2022-09-05T12:57:40.283Z,98932.88
2022-09-05T13:03:04.769Z,98931.25
2022-09-05T13:03:08.575Z,98923.34
2022-09-05T13:04:32.232Z,98925.81
2022-09-05T13:07:01.099Z,98922.22
2022-09-05T13:10:10.568Z,98909.06
2022-09-05T13:14:57.343Z,98907.28
2022-09-05T13:15:19.974Z,98909.94
2022-09-05T13:17:50.615Z,98909.06
2022-09-05T13:20:17.726Z,98909.06
2022-09-05T13:22:48.861Z,98896.91
2022-09-05T13:25:16.791Z,98888.19
2022-09-05T13:27:46.584Z,98889.72
2022-09-05T13:31:13.759Z,98880.16
2022-09-05T13:38:05.155Z,98882.78
2022-09-05T13:38:10.558Z,98879.19
2022-09-05T13:38:49.631Z,98879.03
2022-09-05T13:41:26.827Z,98866.88
2022-09-05T13:44:00.341Z,98867.69
2022-09-05T13:46:42.841Z,98862.28
2022-09-05T13:49:28.666Z,98860.63
2022-09-05T13:51:59.788Z,98861.47
2022-09-05T13:54:26.854Z,98857.03
2022-09-05T13:56:53.944Z,98858.84
2022-09-05T13:59:21.087Z,98858.69
2022-09-05T14:02:24.596Z,98850.00
2022-09-05T14:10:13.157Z,98848.03
2022-09-05T14:12:40.303Z,98843.59
2022-09-05T14:15:11.075Z,98844.28
2022-09-05T14:17:55.018Z,98838.84
2022-09-05T14:20:43.010Z,98842.31
2022-09-05T14:23:10.431Z,98835.63
2022-09-05T14:25:38.937Z,98829.22
2022-09-05T14:28:06.107Z,98830.06
2022-09-05T14:34:30.990Z,98827.28
2022-09-05T14:37:35.250Z,98825.34
2022-09-05T14:38:00.641Z,98833.06
2022-09-05T14:38:55.231Z,98828.50
2022-09-05T14:41:23.353Z,98829.16
2022-09-05T14:43:56.158Z,98827.22
2022-09-05T14:46:24.169Z,98825.41
2022-09-05T14:48:53.519Z,98823.59
2022-09-05T14:51:25.925Z,98826.88
2022-09-05T14:54:01.221Z,98819.84
2022-09-05T14:57:51.261Z,98818.88
2022-09-05T15:02:50.439Z,98810.81
2022-09-05T15:03:00.767Z,98821.50
2022-09-05T15:04:51.050Z,98812.47
2022-09-05T15:07:18.087Z,98814.13
2022-09-05T15:12:14.175Z,98816.59
2022-09-05T15:12:44.106Z,98806.88
2022-09-05T15:15:18.176Z,98808.56
2022-09-05T15:17:45.233Z,98810.19
2022-09-05T15:20:12.491Z,98801.50
2022-09-05T15:22:41.930Z,98809.38
2022-09-05T15:25:17.455Z,98808.41
2022-09-05T15:27:45.247Z,98803.94
2022-09-05T15:30:12.331Z,98804.78
2022-09-05T15:32:41.359Z,98806.44
2022-09-05T15:35:09.358Z,98802.97
2022-09-05T15:37:36.911Z,98806.44
2022-09-05T15:40:04.290Z,98801.19
2022-09-05T15:42:34.643Z,98794.94
2022-09-05T15:45:17.032Z,98787.88
2022-09-05T15:47:44.126Z,98800.03
2022-09-05T15:50:21.772Z,98792.16
2022-09-05T15:52:53.486Z,98795.59
2022-09-05T15:55:23.272Z,98788.56
2022-09-05T15:57:50.450Z,98787.69
2022-09-05T16:00:17.495Z,98784.94
2022-09-05T16:02:44.827Z,98786.41
2022-09-05T16:10:36.221Z,98792.53
2022-09-05T16:10:47.146Z,98788.91
2022-09-05T16:11:20.427Z,98788.09
2022-09-05T16:13:48.377Z,98791.03
2022-09-05T16:23:12.139Z,98782.81
2022-09-05T16:23:20.766Z,98783.13
2022-09-05T16:23:34.732Z,98777.03
2022-09-05T16:24:58.509Z,98775.88
2022-09-05T16:27:27.445Z,98767.50
2022-09-05T16:29:54.520Z,98777.88
2022-09-05T16:32:21.747Z,98777.69
2022-09-05T16:34:50.157Z,98774.25
2022-09-05T16:37:17.202Z,98776.88
2022-09-05T16:39:45.060Z,98776.88
2022-09-05T16:42:12.166Z,98774.25
2022-09-05T16:44:39.218Z,98776.06
2022-09-05T16:47:06.284Z,98769.50
2022-09-05T16:49:43.002Z,98768.69
2022-09-05T16:52:10.358Z,98761.91
2022-09-05T16:54:44.740Z,98762.44
2022-09-05T16:57:11.972Z,98766.72
2022-09-05T16:59:39.079Z,98764.75
2022-09-05T17:02:07.407Z,98765.75
2022-09-05T17:04:34.725Z,98753.72
2022-09-05T17:07:01.775Z,98759.81
2022-09-05T17:09:28.840Z,98756.22
2022-09-05T17:12:00.613Z,98758.00
2022-09-05T17:14:28.683Z,98756.84
2022-09-05T17:16:56.410Z,98753.25
2022-09-05T17:19:24.096Z,98750.59
2022-09-05T17:24:56.720Z,98754.22
2022-09-05T17:29:17.658Z,98755.22
2022-09-05T17:29:24.243Z,98755.22
2022-09-05T17:31:48.868Z,98753.25
2022-09-05T17:33:04.529Z,98753.75
2022-09-05T17:35:31.612Z,98747.53
2022-09-05T17:38:11.776Z,98751.13
2022-09-05T17:40:39.374Z,98744.91
2022-09-05T17:43:06.462Z,98750.16
2022-09-05T17:45:35.465Z,98738.66
2022-09-05T17:48:03.145Z,98747.19
2022-09-05T17:50:33.123Z,98748.19
2022-09-05T17:53:26.967Z,98753.75
2022-09-05T17:55:50.665Z,98751.13
2022-09-05T17:58:17.739Z,98746.03
2022-09-05T18:00:45.695Z,98752.13
2022-09-05T18:03:13.019Z,98748.66
2022-09-05T18:05:40.134Z,98750.97
2022-09-05T18:08:07.247Z,98753.44
2022-09-05T18:10:34.298Z,98754.16
2022-09-05T18:15:48.434Z,98749.31
2022-09-05T18:21:21.073Z,98756.38
2022-09-05T18:23:54.729Z,98755.56
2022-09-05T18:26:21.992Z,98754.75
2022-09-05T18:28:49.072Z,98756.56
2022-09-05T18:31:16.802Z,98761.66
2022-09-05T18:33:54.312Z,98757.38
2022-09-05T18:36:32.300Z,98767.91
2022-09-05T18:38:59.431Z,98762.63
2022-09-05T18:41:28.194Z,98766.25
2022-09-05T18:44:13.993Z,98762.63
2022-09-05T18:46:47.055Z,98764.44
2022-09-05T18:50:19.294Z,98773.97
2022-09-05T18:52:01.183Z,98771.53
2022-09-05T18:54:28.439Z,98765.44
2022-09-05T18:57:24.081Z,98766.25
2022-09-05T18:59:45.912Z,98770.69
2022-09-05T19:02:39.619Z,98775.97
2022-09-05T19:05:00.159Z,98771.66
2022-09-05T19:07:29.668Z,98782.19
2022-09-05T19:09:56.709Z,98780.38
2022-09-05T19:12:33.130Z,98776.91
2022-09-05T19:15:08.166Z,98776.91
2022-09-05T19:17:36.157Z,98768.22
2022-09-05T19:20:12.645Z,98769.19
2022-09-05T19:23:09.802Z,98773.47
2022-09-05T19:25:37.451Z,98780.53
2022-09-05T19:36:44.535Z,98778.72
2022-09-05T19:36:51.772Z,98767.38
2022-09-05T19:36:59.988Z,98770.03
2022-09-05T19:37:03.613Z,98769.19
2022-09-05T19:44:09.009Z,98771.81
2022-09-05T19:47:33.996Z,98774.47
2022-09-05T19:47:55.588Z,98777.09
2022-09-05T19:50:23.150Z,98773.94
2022-09-05T19:52:50.351Z,98769.50
2022-09-05T19:55:18.126Z,98764.09
2022-09-05T19:57:45.283Z,98765.22
2022-09-05T20:00:19.799Z,98753.72
2022-09-05T20:02:51.263Z,98764.41
2022-09-05T20:05:18.575Z,98766.03
2022-09-05T20:07:48.081Z,98756.34
2022-09-05T20:10:15.910Z,98753.88
2022-09-05T20:12:42.956Z,98759.16
2022-09-05T20:15:10.059Z,98753.19
2022-09-05T20:17:39.615Z,98744.31
2022-09-05T20:20:07.717Z,98756.66
2022-09-05T20:22:47.325Z,98749.44
2022-09-05T20:25:19.929Z,98753.88
2022-09-05T20:28:09.667Z,98751.38
2022-09-05T20:30:37.334Z,98752.38
2022-09-05T20:33:05.736Z,98754.19
2022-09-05T20:39:29.287Z,98754.19
2022-09-05T20:43:15.895Z,98758.63
2022-09-05T20:43:30.427Z,98753.50
2022-09-05T20:43:57.413Z,98757.13
2022-09-05T20:48:23.961Z,98758.94
2022-09-05T20:54:13.198Z,98754.66
2022-09-05T20:54:18.231Z,98762.38
2022-09-05T20:54:49.485Z,98752.97
2022-09-05T20:57:16.914Z,98756.47
2022-09-05T20:59:44.099Z,98757.44
2022-09-05T21:02:11.317Z,98756.47
2022-09-05T21:04:42.077Z,98758.25
2022-09-05T21:07:09.138Z,98756.78
2022-09-05T21:09:36.231Z,98768.94
2022-09-05T21:12:06.276Z,98768.78
2022-09-05T21:14:36.143Z,98765.78
2022-09-05T21:17:08.246Z,98758.19
2022-09-05T21:19:42.341Z,98756.72
2022-09-05T21:22:17.083Z,98762.13
2022-09-05T21:24:46.644Z,98762.28
2022-09-05T21:27:13.707Z,98773.75
2022-09-05T21:29:41.594Z,98766.84
2022-09-05T21:32:10.915Z,98769.66
2022-09-05T21:34:45.029Z,98762.75
2022-09-05T21:37:12.752Z,98761.91
2022-09-05T21:39:42.869Z,98763.88
2022-09-05T21:45:35.412Z,98764.00
2022-09-05T21:47:47.403Z,98762.38
2022-09-05T21:48:00.699Z,98758.09
2022-09-05T21:50:31.639Z,98764.34
2022-09-05T21:53:17.469Z,98767.91
2022-09-05T21:59:13.693Z,98758.38
2022-09-05T21:59:29.709Z,98769.91
2022-09-05T22:01:21.077Z,98773.50
2022-09-05T22:04:09.549Z,98769.22
2022-09-05T22:06:36.864Z,98767.56
2022-09-05T22:09:13.603Z,98768.56
2022-09-05T22:11:41.955Z,98772.13
2022-09-05T22:14:09.248Z,98771.31
2022-09-05T22:16:36.391Z,98765.25
2022-09-05T22:19:05.576Z,98759.16
2022-09-05T22:21:34.515Z,98759.31
2022-09-05T22:24:03.360Z,98751.44
2022-09-05T22:26:30.415Z,98750.75
2022-09-05T22:28:57.660Z,98757.66
2022-09-05T22:31:24.988Z,98756.00
2022-09-05T22:33:52.227Z,98755.19
2022-09-05T22:36:19.283Z,98747.47
2022-09-05T22:38:47.662Z,98749.22
2022-09-05T22:41:14.851Z,98746.59
2022-09-05T22:43:41.981Z,98745.78
2022-09-05T22:46:09.160Z,98743.31
2022-09-05T22:48:36.318Z,98744.31
2022-09-05T22:51:03.398Z,98746.09
2022-09-05T22:53:30.459Z,98746.94
2022-09-05T22:55:57.643Z,98745.25
2022-09-05T22:58:24.831Z,98742.63
2022-09-05T23:00:51.924Z,98744.44
2022-09-05T23:03:19.027Z,98735.91
2022-09-05T23:05:46.211Z,98738.53
2022-09-05T23:08:13.308Z,98740.34
2022-09-05T23:10:40.463Z,98740.34
2022-09-05T23:13:07.601Z,98744.75
2022-09-05T23:15:34.892Z,98741.28
2022-09-05T23:18:01.999Z,98740.47
2022-09-05T23:20:29.106Z,98741.47
2022-09-05T23:22:56.821Z,98745.03
2022-09-05T23:25:23.910Z,98741.47
2022-09-05T23:27:51.023Z,98738.00
2022-09-05T23:30:18.084Z,98739.78
2022-09-05T23:32:45.219Z,98737.16
2022-09-05T23:35:12.331Z,98737.28
2022-09-05T23:37:40.712Z,98739.09
2022-09-05T23:40:07.850Z,98739.09
2022-09-05T23:42:34.988Z,98741.72
2022-09-05T23:45:02.139Z,98740.91
2022-09-05T23:47:29.819Z,98737.44
2022-09-05T23:49:56.934Z,98742.72
2022-09-05T23:52:23.993Z,98741.88
2022-09-05T23:54:51.076Z,98737.59
2022-09-05T23:57:18.114Z,98739.38
2022-09-05T23:59:45.188Z,98738.56
